sensor_id;sensor_type;location;lat;lon;timestamp;pressure;altitude;pressure_sealevel;temperature;humidity
71151;BME280;59071;42.138;24.768;2023-05-10T00:05:17;100151.09;;;11.52;74.99
71151;BME280;59071;42.138;24.768;2023-05-10T00:07:43;100165.00;;;11.48;74.90
71151;BME280;59071;42.138;24.768;2023-05-10T00:10:11;100148.19;;;11.41;75.97
71151;BME280;59071;42.138;24.768;2023-05-10T00:12:36;100149.00;;;11.48;76.06
71151;BME280;59071;42.138;24.768;2023-05-10T00:15:02;100149.09;;;11.68;76.07
71151;BME280;59071;42.138;24.768;2023-05-10T00:17:28;100146.50;;;12.01;74.63
71151;BME280;59071;42.138;24.768;2023-05-10T00:19:53;100138.72;;;11.38;77.08
71151;BME280;59071;42.138;24.768;2023-05-10T00:22:18;100146.13;;;11.43;77.42
71151;BME280;59071;42.138;24.768;2023-05-10T00:24:43;100159.22;;;11.31;78.64
71151;BME280;59071;42.138;24.768;2023-05-10T00:27:09;100143.84;;;11.33;78.99
71151;BME280;59071;42.138;24.768;2023-05-10T00:29:34;100148.63;;;11.09;79.24
71151;BME280;59071;42.138;24.768;2023-05-10T00:31:59;100164.13;;;11.27;79.58
71151;BME280;59071;42.138;24.768;2023-05-10T00:34:25;100135.44;;;11.29;79.51
71151;BME280;59071;42.138;24.768;2023-05-10T00:36:50;100134.06;;;10.99;80.64
71151;BME280;59071;42.138;24.768;2023-05-10T00:39:15;100130.47;;;11.20;80.86
71151;BME280;59071;42.138;24.768;2023-05-10T00:41:41;100133.34;;;11.25;80.15
71151;BME280;59071;42.138;24.768;2023-05-10T00:44:06;100132.81;;;11.43;80.13
71151;BME280;59071;42.138;24.768;2023-05-10T00:46:31;100125.59;;;11.30;79.75
71151;BME280;59071;42.138;24.768;2023-05-10T00:48:57;100123.31;;;11.27;80.20
71151;BME280;59071;42.138;24.768;2023-05-10T00:51:22;100129.19;;;11.09;82.41
71151;BME280;59071;42.138;24.768;2023-05-10T00:53:48;100121.47;;;11.27;81.03
71151;BME280;59071;42.138;24.768;2023-05-10T00:56:14;100125.81;;;10.93;82.25
71151;BME280;59071;42.138;24.768;2023-05-10T00:58:40;100131.03;;;11.08;81.71
71151;BME280;59071;42.138;24.768;2023-05-10T01:01:06;100129.19;;;10.74;83.57
71151;BME280;59071;42.138;24.768;2023-05-10T01:03:32;100118.41;;;10.89;82.04
71151;BME280;59071;42.138;24.768;2023-05-10T01:05:57;100126.56;;;10.81;82.40
71151;BME280;59071;42.138;24.768;2023-05-10T01:08:23;100143.75;;;10.78;82.98
71151;BME280;59071;42.138;24.768;2023-05-10T01:10:48;100128.91;;;10.97;82.13
71151;BME280;59071;42.138;24.768;2023-05-10T01:13:17;100134.13;;;11.19;81.07
71151;BME280;59071;42.138;24.768;2023-05-10T01:15:44;100142.81;;;10.92;81.87
71151;BME280;59071;42.138;24.768;2023-05-10T01:18:09;100135.91;;;11.53;79.49
71151;BME280;59071;42.138;24.768;2023-05-10T01:20:41;100133.03;;;11.48;79.08
71151;BME280;59071;42.138;24.768;2023-05-10T01:23:23;100138.81;;;11.65;78.82
71151;BME280;59071;42.138;24.768;2023-05-10T01:28:48;100147.06;;;11.77;78.08
71151;BME280;59071;42.138;24.768;2023-05-10T01:37:07;100140.81;;;11.43;78.99
71151;BME280;59071;42.138;24.768;2023-05-10T01:39:40;100147.13;;;10.93;81.95
71151;BME280;59071;42.138;24.768;2023-05-10T01:42:14;100148.91;;;10.51;83.82
71151;BME280;59071;42.138;24.768;2023-05-10T01:49:56;100141.47;;;10.75;84.24
71151;BME280;59071;42.138;24.768;2023-05-10T01:52:26;100140.28;;;10.78;83.54
71151;BME280;59071;42.138;24.768;2023-05-10T01:55:16;100135.53;;;10.73;83.42
71151;BME280;59071;42.138;24.768;2023-05-10T01:57:40;100126.56;;;10.81;83.29
71151;BME280;59071;42.138;24.768;2023-05-10T02:00:08;100133.63;;;11.02;82.51
71151;BME280;59071;42.138;24.768;2023-05-10T02:02:38;100129.13;;;11.02;81.49
71151;BME280;59071;42.138;24.768;2023-05-10T02:05:05;100139.22;;;10.72;83.03
71151;BME280;59071;42.138;24.768;2023-05-10T02:07:30;100144.53;;;10.72;82.82
71151;BME280;59071;42.138;24.768;2023-05-10T02:09:56;100136.78;;;10.77;82.72
71151;BME280;59071;42.138;24.768;2023-05-10T02:12:23;100153.69;;;10.98;81.64
71151;BME280;59071;42.138;24.768;2023-05-10T02:14:49;100140.44;;;11.11;81.08
71151;BME280;59071;42.138;24.768;2023-05-10T02:17:16;100136.75;;;11.05;80.47
71151;BME280;59071;42.138;24.768;2023-05-10T02:19:41;100140.69;;;11.16;80.82
71151;BME280;59071;42.138;24.768;2023-05-10T02:22:08;100141.09;;;10.78;81.48
71151;BME280;59071;42.138;24.768;2023-05-10T02:24:33;100152.13;;;10.75;82.18
71151;BME280;59071;42.138;24.768;2023-05-10T02:27:00;100141.91;;;10.79;82.71
71151;BME280;59071;42.138;24.768;2023-05-10T02:29:26;100145.78;;;11.11;81.06
71151;BME280;59071;42.138;24.768;2023-05-10T02:31:52;100146.09;;;11.29;80.07
71151;BME280;59071;42.138;24.768;2023-05-10T02:34:19;100142.81;;;10.92;82.01
71151;BME280;59071;42.138;24.768;2023-05-10T02:36:45;100136.06;;;10.96;81.54
71151;BME280;59071;42.138;24.768;2023-05-10T02:39:10;100149.50;;;11.71;78.47
71151;BME280;59071;42.138;24.768;2023-05-10T02:41:38;100148.06;;;11.69;78.84
71151;BME280;59071;42.138;24.768;2023-05-10T02:44:05;100142.97;;;11.87;77.55
71151;BME280;59071;42.138;24.768;2023-05-10T02:46:32;100147.19;;;11.48;77.96
71151;BME280;59071;42.138;24.768;2023-05-10T02:48:58;100145.09;;;10.95;81.09
71151;BME280;59071;42.138;24.768;2023-05-10T02:51:24;100146.88;;;11.23;79.62
71151;BME280;59071;42.138;24.768;2023-05-10T02:53:50;100137.47;;;11.27;79.98
71151;BME280;59071;42.138;24.768;2023-05-10T02:56:34;100148.66;;;11.58;77.91
71151;BME280;59071;42.138;24.768;2023-05-10T02:59:00;100150.00;;;11.40;78.84
71151;BME280;59071;42.138;24.768;2023-05-10T03:01:26;100145.41;;;11.76;77.34
71151;BME280;59071;42.138;24.768;2023-05-10T03:03:51;100143.03;;;11.39;79.54
71151;BME280;59071;42.138;24.768;2023-05-10T03:06:16;100141.25;;;11.46;80.02
71151;BME280;59071;42.138;24.768;2023-05-10T03:08:42;100141.38;;;11.38;79.14
71151;BME280;59071;42.138;24.768;2023-05-10T03:11:23;100146.16;;;11.08;81.06
71151;BME280;59071;42.138;24.768;2023-05-10T03:16:21;100142.00;;;11.33;79.85
71151;BME280;59071;42.138;24.768;2023-05-10T03:21:49;100140.81;;;11.01;80.25
71151;BME280;59071;42.138;24.768;2023-05-10T03:24:16;100149.00;;;11.41;79.19
71151;BME280;59071;42.138;24.768;2023-05-10T03:26:43;100152.28;;;11.43;78.17
71151;BME280;59071;42.138;24.768;2023-05-10T03:29:08;100148.78;;;11.98;77.15
71151;BME280;59071;42.138;24.768;2023-05-10T03:31:35;100161.03;;;11.85;77.33
71151;BME280;59071;42.138;24.768;2023-05-10T03:34:00;100154.91;;;11.91;76.57
71151;BME280;59071;42.138;24.768;2023-05-10T03:36:26;100161.28;;;11.97;76.53
71151;BME280;59071;42.138;24.768;2023-05-10T03:38:51;100162.78;;;12.26;75.50
71151;BME280;59071;42.138;24.768;2023-05-10T03:41:16;100163.19;;;12.17;76.18
71151;BME280;59071;42.138;24.768;2023-05-10T03:43:42;100160.09;;;12.20;76.06
71151;BME280;59071;42.138;24.768;2023-05-10T03:46:07;100171.94;;;11.90;76.04
71151;BME280;59071;42.138;24.768;2023-05-10T03:48:33;100163.16;;;12.03;75.99
71151;BME280;59071;42.138;24.768;2023-05-10T03:50:58;100170.38;;;12.36;74.62
71151;BME280;59071;42.138;24.768;2023-05-10T03:53:23;100163.84;;;11.70;77.34
71151;BME280;59071;42.138;24.768;2023-05-10T03:55:49;100169.94;;;12.06;75.52
71151;BME280;59071;42.138;24.768;2023-05-10T03:58:14;100175.97;;;11.73;77.39
71151;BME280;59071;42.138;24.768;2023-05-10T04:00:40;100172.75;;;11.91;76.95
71151;BME280;59071;42.138;24.768;2023-05-10T04:03:09;100171.97;;;12.10;75.92
71151;BME280;59071;42.138;24.768;2023-05-10T04:05:34;100179.19;;;12.17;75.47
71151;BME280;59071;42.138;24.768;2023-05-10T04:07:59;100185.56;;;12.42;74.60
71151;BME280;59071;42.138;24.768;2023-05-10T04:10:25;100186.72;;;11.93;76.29
71151;BME280;59071;42.138;24.768;2023-05-10T04:12:50;100184.09;;;12.00;75.79
71151;BME280;59071;42.138;24.768;2023-05-10T04:15:15;100185.63;;;11.32;77.83
71151;BME280;59071;42.138;24.768;2023-05-10T04:17:41;100185.81;;;10.89;79.95
71151;BME280;59071;42.138;24.768;2023-05-10T04:20:06;100185.34;;;11.14;79.14
71151;BME280;59071;42.138;24.768;2023-05-10T04:22:32;100184.75;;;10.84;81.57
71151;BME280;59071;42.138;24.768;2023-05-10T04:24:57;100195.84;;;10.87;80.79
71151;BME280;59071;42.138;24.768;2023-05-10T04:27:22;100190.09;;;11.19;80.25
71151;BME280;59071;42.138;24.768;2023-05-10T04:29:48;100194.84;;;11.78;78.00
71151;BME280;59071;42.138;24.768;2023-05-10T04:32:13;100194.09;;;11.91;77.90
71151;BME280;59071;42.138;24.768;2023-05-10T04:34:38;100197.06;;;12.23;79.82
71151;BME280;59071;42.138;24.768;2023-05-10T04:37:04;100202.53;;;12.01;75.84
71151;BME280;59071;42.138;24.768;2023-05-10T04:39:29;100201.50;;;12.02;74.80
71151;BME280;59071;42.138;24.768;2023-05-10T04:41:54;100198.34;;;11.79;75.61
71151;BME280;59071;42.138;24.768;2023-05-10T04:44:20;100200.56;;;11.68;77.03
71151;BME280;59071;42.138;24.768;2023-05-10T04:46:45;100202.97;;;11.50;75.71
71151;BME280;59071;42.138;24.768;2023-05-10T04:49:10;100204.56;;;11.92;75.07
71151;BME280;59071;42.138;24.768;2023-05-10T04:51:36;100202.16;;;12.18;74.14
71151;BME280;59071;42.138;24.768;2023-05-10T04:54:01;100201.59;;;12.56;72.67
71151;BME280;59071;42.138;24.768;2023-05-10T04:56:26;100195.41;;;12.35;73.42
71151;BME280;59071;42.138;24.768;2023-05-10T04:58:51;100200.75;;;12.28;71.39
71151;BME280;59071;42.138;24.768;2023-05-10T05:01:17;100197.31;;;11.80;72.92
71151;BME280;59071;42.138;24.768;2023-05-10T05:03:42;100200.47;;;11.90;73.69
71151;BME280;59071;42.138;24.768;2023-05-10T05:06:07;100194.38;;;12.23;72.71
71151;BME280;59071;42.138;24.768;2023-05-10T05:08:33;100199.56;;;11.69;74.47
71151;BME280;59071;42.138;24.768;2023-05-10T05:10:58;100200.91;;;12.07;72.73
71151;BME280;59071;42.138;24.768;2023-05-10T05:13:24;100208.59;;;11.75;73.76
71151;BME280;59071;42.138;24.768;2023-05-10T05:15:49;100205.06;;;12.23;72.35
71151;BME280;59071;42.138;24.768;2023-05-10T05:18:15;100198.78;;;11.89;73.85
71151;BME280;59071;42.138;24.768;2023-05-10T05:20:40;100198.28;;;12.27;73.57
71151;BME280;59071;42.138;24.768;2023-05-10T05:23:05;100207.97;;;12.55;72.45
71151;BME280;59071;42.138;24.768;2023-05-10T05:25:31;100190.50;;;12.65;72.09
71151;BME280;59071;42.138;24.768;2023-05-10T05:27:56;100191.53;;;12.64;71.83
71151;BME280;59071;42.138;24.768;2023-05-10T05:30:21;100196.31;;;11.87;72.96
71151;BME280;59071;42.138;24.768;2023-05-10T05:32:47;100187.69;;;11.79;73.66
71151;BME280;59071;42.138;24.768;2023-05-10T05:35:12;100196.41;;;11.59;74.95
71151;BME280;59071;42.138;24.768;2023-05-10T05:37:37;100193.59;;;11.26;75.80
71151;BME280;59071;42.138;24.768;2023-05-10T05:40:03;100189.97;;;11.88;73.89
71151;BME280;59071;42.138;24.768;2023-05-10T05:42:29;100197.28;;;11.66;75.36
71151;BME280;59071;42.138;24.768;2023-05-10T05:44:55;100202.38;;;11.61;75.17
71151;BME280;59071;42.138;24.768;2023-05-10T05:47:21;100197.63;;;12.18;73.07
71151;BME280;59071;42.138;24.768;2023-05-10T05:49:46;100198.97;;;11.81;74.65
71151;BME280;59071;42.138;24.768;2023-05-10T05:52:12;100201.91;;;11.99;73.65
71151;BME280;59071;42.138;24.768;2023-05-10T05:54:37;100213.63;;;12.05;74.68
71151;BME280;59071;42.138;24.768;2023-05-10T05:57:03;100211.63;;;13.07;70.43
71151;BME280;59071;42.138;24.768;2023-05-10T05:59:28;100211.19;;;12.23;72.63
71151;BME280;59071;42.138;24.768;2023-05-10T06:01:53;100226.00;;;11.71;75.21
71151;BME280;59071;42.138;24.768;2023-05-10T06:04:19;100221.44;;;12.00;74.84
71151;BME280;59071;42.138;24.768;2023-05-10T06:06:44;100218.03;;;12.59;72.70
71151;BME280;59071;42.138;24.768;2023-05-10T06:09:10;100215.34;;;12.66;70.70
71151;BME280;59071;42.138;24.768;2023-05-10T06:11:35;100216.16;;;12.86;70.82
71151;BME280;59071;42.138;24.768;2023-05-10T06:14:01;100223.56;;;12.44;72.04
71151;BME280;59071;42.138;24.768;2023-05-10T06:16:27;100210.22;;;12.38;72.22
71151;BME280;59071;42.138;24.768;2023-05-10T06:18:52;100221.72;;;12.51;71.55
71151;BME280;59071;42.138;24.768;2023-05-10T06:21:18;100219.84;;;12.99;70.76
71151;BME280;59071;42.138;24.768;2023-05-10T06:23:43;100218.81;;;12.33;72.09
71151;BME280;59071;42.138;24.768;2023-05-10T06:26:09;100225.22;;;12.72;70.69
71151;BME280;59071;42.138;24.768;2023-05-10T06:28:34;100230.75;;;12.70;71.01
71151;BME280;59071;42.138;24.768;2023-05-10T06:31:00;100234.63;;;12.41;71.41
71151;BME280;59071;42.138;24.768;2023-05-10T06:33:25;100242.44;;;12.49;70.43
71151;BME280;59071;42.138;24.768;2023-05-10T06:35:50;100231.56;;;12.71;70.47
71151;BME280;59071;42.138;24.768;2023-05-10T06:38:16;100233.44;;;12.84;69.98
71151;BME280;59071;42.138;24.768;2023-05-10T06:40:41;100244.50;;;12.94;69.06
71151;BME280;59071;42.138;24.768;2023-05-10T06:43:07;100233.63;;;12.62;71.07
71151;BME280;59071;42.138;24.768;2023-05-10T06:45:32;100221.91;;;13.10;69.01
71151;BME280;59071;42.138;24.768;2023-05-10T06:47:57;100228.09;;;12.57;69.73
71151;BME280;59071;42.138;24.768;2023-05-10T06:50:23;100237.53;;;12.86;69.30
71151;BME280;59071;42.138;24.768;2023-05-10T06:52:48;100228.03;;;13.04;68.87
71151;BME280;59071;42.138;24.768;2023-05-10T06:55:13;100228.59;;;13.53;67.67
71151;BME280;59071;42.138;24.768;2023-05-10T06:57:38;100235.75;;;13.65;67.71
71151;BME280;59071;42.138;24.768;2023-05-10T07:00:04;100232.19;;;12.80;68.64
71151;BME280;59071;42.138;24.768;2023-05-10T07:02:29;100220.47;;;13.01;68.36
71151;BME280;59071;42.138;24.768;2023-05-10T07:04:55;100229.09;;;12.56;69.67
71151;BME280;59071;42.138;24.768;2023-05-10T07:07:20;100222.06;;;13.35;67.68
71151;BME280;59071;42.138;24.768;2023-05-10T07:09:45;100222.69;;;13.04;68.64
71151;BME280;59071;42.138;24.768;2023-05-10T07:12:11;100223.09;;;13.27;67.42
71151;BME280;59071;42.138;24.768;2023-05-10T07:14:36;100223.56;;;12.78;68.88
71151;BME280;59071;42.138;24.768;2023-05-10T07:17:01;100220.84;;;13.31;68.86
71151;BME280;59071;42.138;24.768;2023-05-10T07:19:26;100215.47;;;13.24;65.81
71151;BME280;59071;42.138;24.768;2023-05-10T07:21:52;100216.03;;;13.53;64.90
71151;BME280;59071;42.138;24.768;2023-05-10T07:24:17;100229.28;;;14.18;63.64
71151;BME280;59071;42.138;24.768;2023-05-10T07:26:43;100228.16;;;14.39;63.18
71151;BME280;59071;42.138;24.768;2023-05-10T07:29:08;100223.81;;;14.06;62.65
71151;BME280;59071;42.138;24.768;2023-05-10T07:31:34;100225.72;;;13.54;65.41
71151;BME280;59071;42.138;24.768;2023-05-10T07:34:00;100225.59;;;13.81;64.29
71151;BME280;59071;42.138;24.768;2023-05-10T07:36:25;100224.72;;;13.94;62.99
71151;BME280;59071;42.138;24.768;2023-05-10T07:38:51;100228.03;;;13.37;65.22
71151;BME280;59071;42.138;24.768;2023-05-10T07:41:16;100232.59;;;13.82;64.58
71151;BME280;59071;42.138;24.768;2023-05-10T07:43:41;100231.78;;;14.52;63.05
71151;BME280;59071;42.138;24.768;2023-05-10T07:46:07;100235.06;;;14.79;61.49
71151;BME280;59071;42.138;24.768;2023-05-10T07:48:32;100238.78;;;14.53;60.93
71151;BME280;59071;42.138;24.768;2023-05-10T07:50:57;100248.66;;;15.28;60.05
71151;BME280;59071;42.138;24.768;2023-05-10T07:53:23;100240.53;;;15.53;58.96
71151;BME280;59071;42.138;24.768;2023-05-10T07:55:51;100251.06;;;15.73;57.16
71151;BME280;59071;42.138;24.768;2023-05-10T07:58:16;100240.09;;;15.93;57.21
71151;BME280;59071;42.138;24.768;2023-05-10T08:00:42;100243.66;;;15.50;57.27
71151;BME280;59071;42.138;24.768;2023-05-10T08:03:07;100252.69;;;14.93;58.59
71151;BME280;59071;42.138;24.768;2023-05-10T08:05:32;100247.66;;;14.78;59.70
71151;BME280;59071;42.138;24.768;2023-05-10T08:07:57;100266.75;;;15.14;57.96
71151;BME280;59071;42.138;24.768;2023-05-10T08:10:24;100254.31;;;14.94;59.75
71151;BME280;59071;42.138;24.768;2023-05-10T08:12:49;100257.94;;;14.81;57.12
71151;BME280;59071;42.138;24.768;2023-05-10T08:15:15;100249.69;;;15.08;57.03
71151;BME280;59071;42.138;24.768;2023-05-10T08:17:40;100255.97;;;14.95;57.50
71151;BME280;59071;42.138;24.768;2023-05-10T08:20:06;100261.16;;;14.90;58.09
71151;BME280;59071;42.138;24.768;2023-05-10T08:22:32;100250.16;;;14.73;57.64
71151;BME280;59071;42.138;24.768;2023-05-10T08:24:57;100256.81;;;14.64;57.67
71151;BME280;59071;42.138;24.768;2023-05-10T08:27:22;100264.53;;;15.29;58.60
71151;BME280;59071;42.138;24.768;2023-05-10T08:29:48;100260.56;;;15.69;55.62
71151;BME280;59071;42.138;24.768;2023-05-10T08:32:13;100262.75;;;14.98;57.25
71151;BME280;59071;42.138;24.768;2023-05-10T08:34:38;100267.66;;;14.44;58.98
71151;BME280;59071;42.138;24.768;2023-05-10T08:37:04;100252.94;;;14.28;59.10
71151;BME280;59071;42.138;24.768;2023-05-10T08:39:29;100257.63;;;14.39;58.03
71151;BME280;59071;42.138;24.768;2023-05-10T08:41:54;100253.16;;;15.09;56.38
71151;BME280;59071;42.138;24.768;2023-05-10T08:44:22;100268.25;;;15.47;55.40
71151;BME280;59071;42.138;24.768;2023-05-10T08:46:48;100264.53;;;15.29;55.70
71151;BME280;59071;42.138;24.768;2023-05-10T08:49:16;100265.41;;;15.41;56.38
71151;BME280;59071;42.138;24.768;2023-05-10T08:51:44;100252.91;;;14.92;57.08
71151;BME280;59071;42.138;24.768;2023-05-10T08:54:14;100255.00;;;14.90;57.59
71151;BME280;59071;42.138;24.768;2023-05-10T08:56:39;100251.03;;;14.67;57.86
71151;BME280;59071;42.138;24.768;2023-05-10T08:59:05;100260.22;;;15.03;57.04
71151;BME280;59071;42.138;24.768;2023-05-10T09:01:31;100250.53;;;15.02;57.20
71151;BME280;59071;42.138;24.768;2023-05-10T09:03:56;100254.53;;;15.55;56.24
71151;BME280;59071;42.138;24.768;2023-05-10T09:06:23;100253.13;;;16.08;54.87
71151;BME280;59071;42.138;24.768;2023-05-10T09:08:48;100254.91;;;15.58;55.10
71151;BME280;59071;42.138;24.768;2023-05-10T09:11:14;100258.38;;;15.84;54.72
71151;BME280;59071;42.138;24.768;2023-05-10T09:13:39;100245.47;;;15.56;54.04
71151;BME280;59071;42.138;24.768;2023-05-10T09:16:05;100253.13;;;15.34;54.73
71151;BME280;59071;42.138;24.768;2023-05-10T09:18:30;100245.84;;;15.59;55.18
71151;BME280;59071;42.138;24.768;2023-05-10T09:20:55;100238.97;;;15.63;55.19
71151;BME280;59071;42.138;24.768;2023-05-10T09:23:21;100237.44;;;16.05;54.48
71151;BME280;59071;42.138;24.768;2023-05-10T09:25:46;100233.25;;;16.09;52.59
71151;BME280;59071;42.138;24.768;2023-05-10T09:28:12;100195.47;;;15.43;53.37
71151;BME280;59071;42.138;24.768;2023-05-10T09:30:37;100230.84;;;16.19;54.32
71151;BME280;59071;42.138;24.768;2023-05-10T09:33:02;100222.88;;;16.54;52.68
71151;BME280;59071;42.138;24.768;2023-05-10T09:35:29;100218.72;;;16.16;52.21
71151;BME280;59071;42.138;24.768;2023-05-10T09:37:56;100219.34;;;16.30;52.72
71151;BME280;59071;42.138;24.768;2023-05-10T09:40:24;100223.97;;;15.93;53.32
71151;BME280;59071;42.138;24.768;2023-05-10T09:42:51;100221.94;;;16.07;51.60
71151;BME280;59071;42.138;24.768;2023-05-10T09:45:17;100216.41;;;15.90;50.56
71151;BME280;59071;42.138;24.768;2023-05-10T09:47:42;100210.63;;;16.58;51.10
71151;BME280;59071;42.138;24.768;2023-05-10T09:50:07;100217.16;;;15.78;52.04
71151;BME280;59071;42.138;24.768;2023-05-10T09:55:14;100198.09;;;15.98;52.35
71151;BME280;59071;42.138;24.768;2023-05-10T09:57:39;100197.06;;;15.99;52.36
71151;BME280;59071;42.138;24.768;2023-05-10T10:00:05;100196.94;;;15.94;52.79
71151;BME280;59071;42.138;24.768;2023-05-10T10:02:31;100199.09;;;16.28;51.25
71151;BME280;59071;42.138;24.768;2023-05-10T10:04:57;100199.19;;;16.51;51.58
71151;BME280;59071;42.138;24.768;2023-05-10T10:07:23;100200.34;;;16.55;51.07
71151;BME280;59071;42.138;24.768;2023-05-10T10:09:49;100196.88;;;15.82;52.24
71151;BME280;59071;42.138;24.768;2023-05-10T10:12:15;100187.34;;;16.29;52.65
71151;BME280;59071;42.138;24.768;2023-05-10T10:14:40;100189.91;;;16.35;52.03
71151;BME280;59071;42.138;24.768;2023-05-10T10:17:06;100183.13;;;16.21;51.98
71151;BME280;59071;42.138;24.768;2023-05-10T10:19:32;100186.00;;;15.77;54.21
71151;BME280;59071;42.138;24.768;2023-05-10T10:21:58;100183.88;;;15.98;53.12
71151;BME280;59071;42.138;24.768;2023-05-10T10:24:24;100182.78;;;15.87;54.19
71151;BME280;59071;42.138;24.768;2023-05-10T10:26:49;100175.63;;;15.62;54.01
71151;BME280;59071;42.138;24.768;2023-05-10T10:31:55;100188.44;;;16.51;52.07
71151;BME280;59071;42.138;24.768;2023-05-10T10:34:27;100187.72;;;16.56;49.90
71151;BME280;59071;42.138;24.768;2023-05-10T10:36:53;100176.47;;;16.23;51.40
71151;BME280;59071;42.138;24.768;2023-05-10T10:39:19;100183.78;;;16.94;50.26
71151;BME280;59071;42.138;24.768;2023-05-10T10:41:55;100193.00;;;16.74;49.58
71151;BME280;59071;42.138;24.768;2023-05-10T10:44:54;100175.47;;;16.60;49.75
71151;BME280;59071;42.138;24.768;2023-05-10T10:52:15;100175.19;;;16.26;49.21
71151;BME280;59071;42.138;24.768;2023-05-10T10:54:52;100178.78;;;16.86;48.93
71151;BME280;59071;42.138;24.768;2023-05-10T10:57:18;100163.78;;;17.25;47.91
71151;BME280;59071;42.138;24.768;2023-05-10T10:59:44;100170.81;;;17.55;46.22
71151;BME280;59071;42.138;24.768;2023-05-10T11:02:09;100168.16;;;17.43;47.11
71151;BME280;59071;42.138;24.768;2023-05-10T11:04:41;100166.69;;;17.24;47.62
71151;BME280;59071;42.138;24.768;2023-05-10T11:07:17;100168.28;;;17.77;46.39
71151;BME280;59071;42.138;24.768;2023-05-10T11:09:43;100163.56;;;17.96;45.93
71151;BME280;59071;42.138;24.768;2023-05-10T11:12:08;100160.94;;;18.18;46.11
71151;BME280;59071;42.138;24.768;2023-05-10T11:14:33;100167.44;;;17.88;45.13
71151;BME280;59071;42.138;24.768;2023-05-10T11:16:59;100153.91;;;17.71;46.24
71151;BME280;59071;42.138;24.768;2023-05-10T11:19:27;100156.38;;;18.02;44.74
71151;BME280;59071;42.138;24.768;2023-05-10T11:24:30;100153.72;;;17.61;46.23
71151;BME280;59071;42.138;24.768;2023-05-10T11:26:55;100159.63;;;18.71;44.41
71151;BME280;59071;42.138;24.768;2023-05-10T11:29:21;100147.72;;;18.84;43.13
71151;BME280;59071;42.138;24.768;2023-05-10T11:31:47;100143.75;;;18.70;42.51
71151;BME280;59071;42.138;24.768;2023-05-10T11:34:22;100145.94;;;18.56;43.19
71151;BME280;59071;42.138;24.768;2023-05-10T11:36:50;100148.78;;;17.98;42.69
71151;BME280;59071;42.138;24.768;2023-05-10T11:39:16;100153.69;;;17.73;42.17
71151;BME280;59071;42.138;24.768;2023-05-10T11:41:41;100141.34;;;17.19;44.08
71151;BME280;59071;42.138;24.768;2023-05-10T11:44:06;100139.44;;;17.32;44.97
71151;BME280;59071;42.138;24.768;2023-05-10T11:46:34;100156.50;;;17.66;43.21
71151;BME280;59071;42.138;24.768;2023-05-10T11:49:00;100146.22;;;17.34;42.72
71151;BME280;59071;42.138;24.768;2023-05-10T11:51:35;100143.63;;;17.97;41.97
71151;BME280;59071;42.138;24.768;2023-05-10T11:54:02;100149.81;;;18.26;43.04
71151;BME280;59071;42.138;24.768;2023-05-10T11:56:29;100149.94;;;18.87;40.72
71151;BME280;59071;42.138;24.768;2023-05-10T11:58:57;100139.97;;;18.54;42.17
71151;BME280;59071;42.138;24.768;2023-05-10T12:01:23;100141.94;;;18.25;43.57
71151;BME280;59071;42.138;24.768;2023-05-10T12:03:49;100142.97;;;18.74;41.30
71151;BME280;59071;42.138;24.768;2023-05-10T12:06:15;100139.84;;;18.27;42.81
71151;BME280;59071;42.138;24.768;2023-05-10T12:08:44;100134.56;;;18.88;41.57
71151;BME280;59071;42.138;24.768;2023-05-10T12:11:09;100139.69;;;18.33;41.67
71151;BME280;59071;42.138;24.768;2023-05-10T12:13:41;100128.41;;;18.36;41.18
71151;BME280;59071;42.138;24.768;2023-05-10T12:16:19;100125.38;;;18.16;41.99
71151;BME280;59071;42.138;24.768;2023-05-10T12:18:47;100133.63;;;18.09;43.00
71151;BME280;59071;42.138;24.768;2023-05-10T12:21:13;100133.84;;;17.91;44.13
71151;BME280;59071;42.138;24.768;2023-05-10T12:23:40;100134.78;;;17.56;43.99
71151;BME280;59071;42.138;24.768;2023-05-10T12:26:05;100108.22;;;17.88;43.66
71151;BME280;59071;42.138;24.768;2023-05-10T12:28:31;100117.75;;;18.64;41.92
71151;BME280;59071;42.138;24.768;2023-05-10T12:31:00;100116.47;;;18.49;42.17
71151;BME280;59071;42.138;24.768;2023-05-10T12:33:26;100119.59;;;18.07;43.88
71151;BME280;59071;42.138;24.768;2023-05-10T12:35:52;100114.88;;;18.14;42.69
71151;BME280;59071;42.138;24.768;2023-05-10T12:38:28;100122.38;;;17.84;43.64
71151;BME280;59071;42.138;24.768;2023-05-10T12:40:57;100111.34;;;16.99;45.63
71151;BME280;59071;42.138;24.768;2023-05-10T12:43:22;100118.81;;;17.37;44.40
71151;BME280;59071;42.138;24.768;2023-05-10T12:45:48;100099.75;;;17.39;43.56
71151;BME280;59071;42.138;24.768;2023-05-10T12:48:14;100087.69;;;17.42;43.93
71151;BME280;59071;42.138;24.768;2023-05-10T12:50:39;100092.50;;;17.39;44.42
71151;BME280;59071;42.138;24.768;2023-05-10T12:53:04;100080.94;;;17.39;45.21
71151;BME280;59071;42.138;24.768;2023-05-10T12:55:30;100084.91;;;17.65;44.29
71151;BME280;59071;42.138;24.768;2023-05-10T12:57:55;100102.84;;;17.59;43.08
71151;BME280;59071;42.138;24.768;2023-05-10T13:00:21;100076.91;;;17.13;42.99
71151;BME280;59071;42.138;24.768;2023-05-10T13:02:46;100074.47;;;17.97;42.23
71151;BME280;59071;42.138;24.768;2023-05-10T13:05:11;100066.22;;;18.21;40.91
71151;BME280;59071;42.138;24.768;2023-05-10T13:07:38;100059.44;;;17.56;42.56
71151;BME280;59071;42.138;24.768;2023-05-10T13:10:03;100053.56;;;17.88;41.36
71151;BME280;59071;42.138;24.768;2023-05-10T13:12:29;100059.34;;;18.30;40.75